Time;durP1;ratioP1;P1;durP2;ratioP2;P2;SDS_P1;SDS_P2;PMS_P1;PMS_P2;Temp;Humidity;BMP_temperature;BMP_pressure;BME280_temperature;BME280_humidity;BME280_pressure;Samples;Min_cycle;Max_cycle;Signal;HPM_P1;HPM_P2
2021/12/04 00:01:50;;;;;;;7.20;3.65;;;4.80;99.90;;;;;;4978155;28;20033;-78
2021/12/04 00:04:30;;;;;;;8.65;4.40;;;4.80;99.90;;;;;;4978018;28;20113;-77
2021/12/04 00:06:56;;;;;;;8.43;3.80;;;4.80;99.90;;;;;;4995543;28;20444;-77
2021/12/04 00:09:22;;;;;;;7.40;3.88;;;4.80;99.90;;;;;;4995342;28;20057;-77
2021/12/04 00:11:56;;;;;;;7.28;3.78;;;4.70;99.90;;;;;;4995462;28;20022;-76
2021/12/04 00:14:22;;;;;;;8.23;3.95;;;4.80;99.90;;;;;;4995527;28;20430;-77
2021/12/04 00:16:48;;;;;;;7.25;3.25;;;4.80;99.90;;;;;;4978236;28;20022;-77
2021/12/04 00:19:14;;;;;;;7.78;4.07;;;4.80;99.90;;;;;;4995586;28;20053;-77
2021/12/04 00:21:39;;;;;;;7.78;3.88;;;4.80;99.90;;;;;;4995436;28;20022;-77
2021/12/04 00:24:05;;;;;;;10.98;4.75;;;4.80;99.90;;;;;;4995769;28;20038;-77
2021/12/04 00:26:31;;;;;;;9.93;4.20;;;4.80;99.90;;;;;;4995829;28;20476;-77
2021/12/04 00:28:56;;;;;;;9.80;4.45;;;4.90;99.90;;;;;;4995068;28;20034;-76
2021/12/04 00:31:22;;;;;;;7.28;3.75;;;4.90;99.90;;;;;;4995650;28;20471;-77
2021/12/04 00:33:49;;;;;;;9.73;4.25;;;4.90;99.90;;;;;;4994280;28;20093;-77
2021/12/04 00:49:52;;;;;;;10.55;4.50;;;4.90;99.90;;;;;;4994903;28;20514;-77
2021/12/04 00:52:18;;;;;;;10.10;4.35;;;4.90;99.90;;;;;;4994639;28;20026;-77
2021/12/04 00:54:44;;;;;;;10.50;4.68;;;4.90;99.90;;;;;;4994624;28;20022;-77
2021/12/04 00:57:10;;;;;;;11.05;5.47;;;4.90;99.90;;;;;;4994599;28;20499;-77
2021/12/04 00:59:35;;;;;;;15.15;5.18;;;4.90;99.90;;;;;;4994413;28;20030;-76
2021/12/04 01:02:01;;;;;;;10.80;5.63;;;4.90;99.90;;;;;;4994635;28;20045;-77
2021/12/04 01:04:27;;;;;;;10.40;5.05;;;4.90;99.90;;;;;;4994594;28;20026;-76
2021/12/04 01:06:53;;;;;;;12.18;5.28;;;4.90;99.90;;;;;;4994852;28;20034;-77
2021/12/04 01:09:21;;;;;;;11.13;5.38;;;4.90;99.90;;;;;;4976857;28;20118;-77
2021/12/04 01:11:47;;;;;;;14.38;5.75;;;4.90;99.90;;;;;;4994832;28;20033;-76
2021/12/04 01:14:17;;;;;;;12.63;5.43;;;5.00;99.90;;;;;;4994260;28;20079;-76
2021/12/04 01:16:43;;;;;;;12.65;4.70;;;4.90;99.90;;;;;;4994548;28;20030;-77
2021/12/04 01:19:09;;;;;;;15.07;5.45;;;4.90;99.90;;;;;;4994391;28;20038;-76
2021/12/04 01:21:34;;;;;;;12.70;5.00;;;4.90;99.90;;;;;;4976851;28;20030;-76
2021/12/04 01:24:00;;;;;;;13.45;5.53;;;4.90;99.90;;;;;;4994314;28;20042;-76
2021/12/04 01:26:26;;;;;;;16.10;6.65;;;4.90;99.90;;;;;;4976741;28;20022;-77
2021/12/04 01:28:52;;;;;;;15.85;6.65;;;5.00;99.90;;;;;;4994431;28;20160;-76
2021/12/04 01:31:18;;;;;;;15.20;6.05;;;4.90;99.90;;;;;;4976833;28;20113;-77
2021/12/04 01:33:44;;;;;;;17.85;6.30;;;5.00;99.90;;;;;;4994074;28;20391;-76
2021/12/04 01:36:09;;;;;;;18.15;7.50;;;4.90;99.90;;;;;;4994007;28;20126;-76
2021/12/04 01:38:36;;;;;;;17.08;7.00;;;4.90;99.90;;;;;;4994109;28;20030;-76
2021/12/04 01:41:02;;;;;;;14.85;6.43;;;5.00;99.90;;;;;;4976685;28;20033;-76
2021/12/04 01:43:28;;;;;;;22.52;8.40;;;4.90;99.90;;;;;;4994280;28;20039;-76
2021/12/04 01:45:54;;;;;;;20.38;7.20;;;5.00;99.90;;;;;;4980714;28;20395;-76
2021/12/04 01:48:20;;;;;;;25.77;9.00;;;5.00;99.90;;;;;;4998479;28;20027;-77
2021/12/04 01:50:45;;;;;;;24.85;8.40;;;4.90;99.90;;;;;;4980613;28;20033;-77
2021/12/04 01:53:11;;;;;;;23.33;8.02;;;4.90;99.90;;;;;;4998632;28;20031;-77
2021/12/04 01:55:37;;;;;;;27.13;8.00;;;5.00;99.90;;;;;;4980958;28;20045;-78
2021/12/04 01:58:04;;;;;;;20.17;7.90;;;4.90;99.90;;;;;;4998320;28;20065;-76
2021/12/04 02:00:33;;;;;;;27.27;8.88;;;4.90;99.90;;;;;;4998575;28;20483;-77
2021/12/04 02:02:59;;;;;;;21.38;8.05;;;5.00;99.90;;;;;;4998505;28;20383;-77
2021/12/04 02:05:24;;;;;;;25.17;8.88;;;4.90;99.90;;;;;;4997941;28;20023;-78
2021/12/04 02:07:50;;;;;;;28.50;8.95;;;4.90;99.90;;;;;;4998194;28;20089;-77
2021/12/04 02:10:16;;;;;;;27.10;8.57;;;4.90;99.90;;;;;;4980383;28;20026;-77
2021/12/04 02:12:42;;;;;;;29.42;8.95;;;4.90;99.90;;;;;;4998162;28;20026;-77
2021/12/04 02:15:12;;;;;;;26.98;9.20;;;4.90;99.90;;;;;;4997881;28;20026;-77
2021/12/04 02:17:38;;;;;;;33.45;10.27;;;4.90;99.90;;;;;;4997888;28;20502;-77
2021/12/04 02:20:32;;;;;;;26.02;9.48;;;4.90;99.90;;;;;;4997829;28;20018;-76
2021/12/04 02:22:59;;;;;;;29.50;9.57;;;4.90;99.90;;;;;;4978515;28;20514;-76
2021/12/04 02:25:25;;;;;;;34.35;11.23;;;5.00;99.90;;;;;;4980028;28;20026;-77
2021/12/04 02:27:51;;;;;;;37.75;10.63;;;5.00;99.90;;;;;;4997517;28;20105;-76
2021/12/04 02:30:21;;;;;;;31.13;10.18;;;4.90;99.90;;;;;;4997690;28;20030;-77
2021/12/04 02:32:47;;;;;;;36.38;11.32;;;4.90;99.90;;;;;;4979733;28;20018;-78
2021/12/04 02:35:13;;;;;;;37.72;10.63;;;4.90;99.90;;;;;;4997383;28;20415;-77
2021/12/04 02:37:40;;;;;;;34.22;9.68;;;4.90;99.90;;;;;;4997250;28;20022;-76
2021/12/04 02:40:08;;;;;;;34.40;9.40;;;4.90;99.90;;;;;;4997037;28;20030;-76
2021/12/04 02:42:34;;;;;;;27.85;9.95;;;4.90;99.90;;;;;;4997455;28;20049;-76
2021/12/04 02:45:02;;;;;;;33.65;9.90;;;4.90;99.90;;;;;;4979726;28;20484;-76
2021/12/04 02:47:29;;;;;;;35.33;9.27;;;4.90;99.90;;;;;;4997214;28;20031;-77
2021/12/04 02:49:55;;;;;;;35.40;11.13;;;4.90;99.90;;;;;;4997261;28;20514;-77
2021/12/04 02:52:23;;;;;;;38.22;11.73;;;5.00;99.90;;;;;;4979293;28;20395;-76
2021/12/04 02:54:50;;;;;;;34.72;11.88;;;5.00;99.90;;;;;;4979734;28;20026;-77
2021/12/04 02:57:18;;;;;;;29.35;10.23;;;4.90;99.90;;;;;;4996157;28;20027;-77
2021/12/04 02:59:45;;;;;;;37.63;10.32;;;5.00;99.90;;;;;;4997256;28;20032;-77
2021/12/04 03:02:21;;;;;;;35.55;10.48;;;5.00;99.90;;;;;;4979816;28;20475;-77
2021/12/04 03:04:52;;;;;;;37.30;11.00;;;5.00;99.90;;;;;;4997203;28;20023;-77
2021/12/04 03:07:20;;;;;;;37.17;10.40;;;5.00;99.90;;;;;;4997203;28;20026;-77
2021/12/04 03:09:45;;;;;;;38.53;10.10;;;5.00;99.90;;;;;;4997171;28;20057;-77
2021/12/04 03:12:12;;;;;;;29.10;9.23;;;5.00;99.90;;;;;;4979765;28;20113;-76
2021/12/04 03:14:39;;;;;;;34.15;10.63;;;5.00;99.90;;;;;;4979420;28;20062;-77
2021/12/04 03:17:05;;;;;;;33.60;10.52;;;5.00;99.90;;;;;;4997793;28;20029;-77
2021/12/04 03:19:31;;;;;;;43.22;11.55;;;5.00;99.90;;;;;;4996747;28;20026;-78
2021/12/04 03:21:57;;;;;;;37.83;11.55;;;5.00;99.90;;;;;;4996932;28;20018;-77
2021/12/04 03:24:24;;;;;;;31.15;9.48;;;5.10;99.90;;;;;;4996454;28;20015;-77
2021/12/04 03:26:51;;;;;;;37.42;10.52;;;5.00;99.90;;;;;;4996863;28;20475;-78
2021/12/04 03:29:19;;;;;;;34.63;11.88;;;5.10;99.90;;;;;;4997230;28;20077;-77
2021/12/04 03:32:07;;;;;;;37.70;9.75;;;5.00;99.90;;;;;;4979188;28;20018;-77
2021/12/04 03:42:32;;;;;;;31.95;10.95;;;5.10;99.90;;;;;;4996302;28;20377;-78
2021/12/04 03:44:58;;;;;;;38.55;10.48;;;5.10;99.90;;;;;;4996668;28;20023;-77
2021/12/04 03:47:24;;;;;;;34.53;10.48;;;5.10;99.90;;;;;;4996233;28;20022;-77
2021/12/04 03:49:50;;;;;;;37.00;11.02;;;5.10;99.90;;;;;;4978492;28;20057;-78
2021/12/04 03:52:16;;;;;;;34.72;11.63;;;5.10;99.90;;;;;;4996105;28;20089;-78
2021/12/04 03:54:43;;;;;;;34.00;11.00;;;5.10;99.90;;;;;;4996123;28;20518;-78
2021/12/04 03:57:12;;;;;;;37.75;10.35;;;5.10;99.90;;;;;;4978672;28;20113;-78
2021/12/04 03:59:44;;;;;;;38.28;11.75;;;5.10;99.90;;;;;;4976639;28;20603;-78
2021/12/04 04:02:12;;;;;;;38.20;10.57;;;5.10;99.90;;;;;;4959442;28;20023;-78
2021/12/04 04:04:38;;;;;;;35.83;9.67;;;5.10;99.90;;;;;;4959184;28;20157;-77
2021/12/04 04:07:05;;;;;;;29.35;10.18;;;5.10;99.90;;;;;;4976724;28;20640;-77
2021/12/04 04:09:32;;;;;;;43.80;11.13;;;5.10;99.90;;;;;;4960425;28;20443;-78
2021/12/04 04:11:58;;;;;;;35.58;10.25;;;5.10;99.90;;;;;;4978040;28;20051;-78
2021/12/04 04:14:24;;;;;;;31.92;8.77;;;5.10;99.90;;;;;;4959483;28;20026;-78
2021/12/04 04:16:53;;;;;;;37.72;9.18;;;5.10;99.90;;;;;;4976817;28;20361;-78
2021/12/04 04:19:18;;;;;;;36.75;10.75;;;5.10;99.90;;;;;;4974017;28;20023;-78
2021/12/04 04:21:44;;;;;;;35.78;10.35;;;5.10;99.90;;;;;;4978962;28;20041;-78
2021/12/04 04:24:11;;;;;;;37.85;11.02;;;5.10;99.90;;;;;;4978520;28;20022;-78
2021/12/04 04:26:38;;;;;;;43.63;10.32;;;5.10;99.90;;;;;;4995980;28;20030;-78
2021/12/04 04:29:05;;;;;;;43.20;10.85;;;5.10;99.90;;;;;;4995893;28;20068;-78
2021/12/04 04:31:32;;;;;;;31.88;10.07;;;5.10;99.90;;;;;;4996132;28;20537;-78
2021/12/04 04:34:02;;;;;;;39.40;11.65;;;5.10;99.90;;;;;;4996917;28;20369;-79
2021/12/04 04:39:17;;;;;;;31.58;10.00;;;5.10;99.90;;;;;;4995300;28;20484;-78
2021/12/04 05:11:56;;;;;;;38.90;11.02;;;5.10;99.90;;;;;;4994934;28;20092;-77
2021/12/04 05:14:23;;;;;;;36.40;10.68;;;5.10;99.90;;;;;;4995087;28;20038;-77
2021/12/04 05:16:59;;;;;;;43.53;11.77;;;5.10;99.90;;;;;;4994140;28;20018;-77
2021/12/04 05:19:52;;;;;;;48.28;11.63;;;5.10;99.90;;;;;;4976565;28;20431;-77
2021/12/04 05:22:19;;;;;;;44.40;10.93;;;5.10;99.90;;;;;;4994169;28;20029;-77
2021/12/04 05:24:44;;;;;;;35.13;10.68;;;5.10;99.90;;;;;;4994792;28;20042;-77
2021/12/04 05:27:10;;;;;;;43.22;10.63;;;5.20;99.90;;;;;;4994712;28;20030;-77
2021/12/04 05:29:36;;;;;;;42.72;9.63;;;5.20;99.90;;;;;;4993976;28;20033;-77
2021/12/04 05:32:04;;;;;;;47.22;11.50;;;5.10;99.90;;;;;;4976573;28;20028;-78
2021/12/04 05:34:30;;;;;;;36.03;10.50;;;5.10;99.90;;;;;;4976648;28;20073;-78
2021/12/04 05:36:57;;;;;;;42.88;10.57;;;5.10;99.90;;;;;;4994795;28;20034;-78
2021/12/04 05:39:22;;;;;;;41.72;11.27;;;5.20;99.90;;;;;;4994045;28;20034;-78
2021/12/04 05:41:48;;;;;;;32.92;9.82;;;5.10;99.90;;;;;;4994120;28;20034;-78
2021/12/04 05:44:16;;;;;;;37.45;11.20;;;5.20;99.90;;;;;;4995173;28;20480;-79
2021/12/04 05:46:53;;;;;;;35.58;9.95;;;5.20;99.90;;;;;;4995986;28;20093;-78
2021/12/04 05:49:24;;;;;;;38.38;11.02;;;5.20;99.90;;;;;;4977849;28;20034;-78
2021/12/04 05:54:43;;;;;;;39.80;10.27;;;5.20;99.90;;;;;;4996682;28;20372;-78
2021/12/04 05:57:09;;;;;;;31.63;9.30;;;5.10;99.90;;;;;;4976694;28;20023;-78
2021/12/04 05:59:36;;;;;;;41.92;10.25;;;5.10;99.90;;;;;;4976532;28;20030;-78
2021/12/04 06:02:02;;;;;;;32.42;9.93;;;5.10;99.90;;;;;;4994365;28;20031;-76
2021/12/04 06:04:27;;;;;;;40.17;12.25;;;5.20;99.90;;;;;;4993760;28;20103;-78
2021/12/04 06:06:53;;;;;;;33.05;10.95;;;5.20;99.90;;;;;;4976350;28;20026;-76
2021/12/04 06:09:19;;;;;;;36.78;9.27;;;5.20;99.90;;;;;;4993803;28;20069;-78
2021/12/04 06:11:45;;;;;;;41.30;10.43;;;5.20;99.90;;;;;;4976297;28;20109;-78
2021/12/04 06:14:10;;;;;;;41.25;11.05;;;5.20;99.90;;;;;;4994006;28;20507;-77
2021/12/04 06:16:36;;;;;;;33.60;10.43;;;5.20;99.90;;;;;;4976241;28;20044;-77
2021/12/04 06:19:26;;;;;;;40.80;11.75;;;5.20;99.90;;;;;;4993679;28;20479;-77
2021/12/04 06:24:36;;;;;;;40.92;10.77;;;5.20;99.90;;;;;;4993684;28;20025;-76
2021/12/04 06:27:02;;;;;;;50.58;11.13;;;5.20;99.90;;;;;;4993507;28;20539;-77
2021/12/04 06:29:27;;;;;;;42.65;12.18;;;5.20;99.90;;;;;;4975959;28;20475;-77
2021/12/04 06:31:53;;;;;;;45.00;12.55;;;5.20;99.90;;;;;;4996033;28;20084;-77
2021/12/04 06:34:19;;;;;;;48.33;11.45;;;5.10;99.90;;;;;;4997179;28;20090;-77
2021/12/04 06:36:44;;;;;;;45.00;10.93;;;5.10;99.90;;;;;;4997295;28;20077;-77
2021/12/04 06:39:10;;;;;;;38.65;10.40;;;5.10;99.90;;;;;;4979632;28;20027;-77
2021/12/04 06:41:36;;;;;;;49.88;10.20;;;5.20;99.90;;;;;;4997155;28;20033;-76
2021/12/04 06:44:02;;;;;;;40.35;9.88;;;5.10;99.90;;;;;;4996987;28;20018;-75
2021/12/04 06:46:29;;;;;;;34.58;9.68;;;5.10;99.90;;;;;;4996982;28;20105;-77
2021/12/04 06:51:35;;;;;;;43.20;11.25;;;5.10;99.90;;;;;;4997410;28;20038;-77
2021/12/04 06:54:06;;;;;;;39.88;11.07;;;5.10;99.90;;;;;;4979499;28;20034;-77
2021/12/04 06:56:36;;;;;;;40.97;10.32;;;5.10;99.90;;;;;;4979431;28;20527;-76
2021/12/04 06:59:08;;;;;;;40.75;10.80;;;5.20;99.90;;;;;;4997130;28;20443;-77
2021/12/04 07:01:35;;;;;;;42.28;10.07;;;5.10;99.90;;;;;;4979680;28;20019;-77
2021/12/04 07:04:01;;;;;;;39.92;11.75;;;5.10;99.90;;;;;;4997034;28;20388;-77
2021/12/04 07:06:27;;;;;;;47.15;11.68;;;5.20;99.90;;;;;;4979371;28;20022;-77
2021/12/04 07:08:52;;;;;;;41.97;11.18;;;5.10;99.90;;;;;;4979292;28;20018;-76
2021/12/04 07:11:18;;;;;;;30.98;11.02;;;5.20;99.90;;;;;;4996933;28;20105;-77
2021/12/04 07:13:44;;;;;;;40.45;11.18;;;5.10;99.90;;;;;;4997193;28;20022;-77
2021/12/04 07:16:13;;;;;;;42.22;12.25;;;5.10;99.90;;;;;;4996923;28;20033;-77
2021/12/04 07:18:38;;;;;;;38.08;10.45;;;5.10;99.90;;;;;;4997439;28;20025;-77
2021/12/04 07:21:04;;;;;;;37.30;11.35;;;5.20;99.90;;;;;;4979246;28;20384;-77
2021/12/04 07:23:31;;;;;;;34.75;11.10;;;5.20;99.90;;;;;;4979451;28;20034;-77
2021/12/04 07:25:56;;;;;;;33.03;10.73;;;5.20;99.90;;;;;;4996927;28;20153;-77
2021/12/04 07:28:22;;;;;;;44.42;13.13;;;5.20;99.90;;;;;;4996755;28;20062;-77
2021/12/04 07:30:48;;;;;;;38.10;11.20;;;5.20;99.90;;;;;;4979129;28;20022;-77
2021/12/04 07:33:13;;;;;;;36.72;10.95;;;5.20;99.90;;;;;;4996665;28;20037;-77
2021/12/04 07:35:39;;;;;;;35.15;10.60;;;5.20;99.90;;;;;;4996545;28;20434;-77
2021/12/04 07:38:05;;;;;;;33.38;10.02;;;5.20;99.90;;;;;;4996174;28;20491;-76
2021/12/04 07:40:30;;;;;;;40.97;12.45;;;5.20;99.90;;;;;;4979270;28;20033;-76
2021/12/04 07:42:56;;;;;;;42.33;11.85;;;5.20;99.90;;;;;;4978838;28;20018;-77
2021/12/04 07:45:21;;;;;;;40.60;10.90;;;5.20;99.90;;;;;;4978807;28;20434;-76
2021/12/04 07:47:47;;;;;;;42.10;12.45;;;5.20;99.90;;;;;;4995880;28;20030;-78
2021/12/04 07:50:14;;;;;;;39.55;10.35;;;5.20;99.90;;;;;;4978126;28;20077;-76
2021/12/04 07:52:40;;;;;;;35.67;10.25;;;5.20;99.90;;;;;;4996003;28;20435;-77
2021/12/04 07:55:07;;;;;;;39.03;11.52;;;5.20;99.90;;;;;;4996191;28;20542;-77
2021/12/04 07:57:33;;;;;;;43.97;11.93;;;5.20;99.90;;;;;;4995826;28;20030;-77
2021/12/04 07:59:59;;;;;;;33.45;10.15;;;5.20;99.90;;;;;;4996080;28;20419;-77
2021/12/04 08:02:25;;;;;;;41.13;11.30;;;5.30;99.90;;;;;;4978845;28;20030;-77
2021/12/04 08:04:50;;;;;;;40.13;11.45;;;5.20;99.90;;;;;;4979645;28;20049;-75
2021/12/04 08:07:16;;;;;;;42.72;11.15;;;5.20;99.90;;;;;;4978161;28;20514;-75
2021/12/04 08:09:41;;;;;;;35.28;11.07;;;5.20;99.90;;;;;;4978188;28;20081;-76
2021/12/04 08:12:09;;;;;;;43.00;11.73;;;5.30;99.90;;;;;;4995895;28;20023;-77
2021/12/04 08:14:35;;;;;;;46.67;11.80;;;5.20;99.90;;;;;;4978252;28;20380;-76
2021/12/04 08:17:01;;;;;;;39.25;12.10;;;5.20;99.90;;;;;;4996229;28;20113;-76
2021/12/04 08:19:27;;;;;;;51.40;12.25;;;5.30;99.90;;;;;;4977955;28;20038;-75
2021/12/04 08:21:53;;;;;;;39.42;11.15;;;5.30;99.90;;;;;;4995751;28;20494;-75
2021/12/04 08:24:18;;;;;;;45.25;12.38;;;5.20;99.90;;;;;;4995567;28;20027;-75
2021/12/04 08:26:46;;;;;;;49.13;13.23;;;5.20;99.90;;;;;;4995298;28;20125;-77
2021/12/04 08:29:12;;;;;;;46.83;12.52;;;5.30;99.90;;;;;;4977517;28;20026;-77
2021/12/04 08:31:38;;;;;;;37.78;12.15;;;5.20;99.90;;;;;;4995502;28;20046;-77
2021/12/04 08:34:04;;;;;;;40.47;13.48;;;5.30;99.90;;;;;;4995111;28;20475;-76
2021/12/04 08:36:32;;;;;;;41.33;11.73;;;5.20;99.90;;;;;;4976895;28;20113;-77
2021/12/04 08:38:58;;;;;;;39.00;12.65;;;5.30;99.90;;;;;;4995045;28;20018;-77
2021/12/04 08:41:24;;;;;;;47.78;11.43;;;5.30;99.90;;;;;;4995202;28;20495;-76
2021/12/04 08:43:52;;;;;;;39.03;12.65;;;5.30;99.90;;;;;;4994920;28;20011;-75
2021/12/04 08:46:20;;;;;;;39.13;11.15;;;5.30;99.90;;;;;;4977714;28;20022;-76
2021/12/04 08:48:47;;;;;;;40.38;11.68;;;5.30;99.90;;;;;;4976823;28;20026;-76
2021/12/04 08:51:13;;;;;;;39.92;11.80;;;5.20;99.90;;;;;;4977052;28;20018;-76
2021/12/04 08:53:39;;;;;;;46.05;11.98;;;5.20;99.90;;;;;;4976419;28;20029;-76
2021/12/04 08:56:04;;;;;;;45.28;12.05;;;5.20;99.90;;;;;;4994785;28;20484;-76
2021/12/04 08:58:30;;;;;;;43.33;12.13;;;5.30;99.90;;;;;;4994638;28;20042;-76
2021/12/04 09:01:00;;;;;;;43.72;10.80;;;5.30;99.90;;;;;;4994526;28;20050;-75
2021/12/04 09:03:33;;;;;;;40.70;10.32;;;5.30;99.90;;;;;;4994870;28;20499;-76
2021/12/04 09:06:00;;;;;;;40.55;11.02;;;5.30;99.90;;;;;;4994403;28;20117;-78
2021/12/04 09:08:27;;;;;;;37.38;10.98;;;5.30;99.90;;;;;;4994710;28;20034;-78
2021/12/04 09:10:56;;;;;;;29.85;9.30;;;5.30;99.90;;;;;;4977703;28;20026;-78
2021/12/04 09:13:22;;;;;;;34.60;9.45;;;5.30;99.90;;;;;;4994680;28;20084;-78
2021/12/04 09:15:49;;;;;;;33.47;9.05;;;5.30;99.90;;;;;;4977332;28;20046;-79
2021/12/04 09:18:15;;;;;;;35.38;10.57;;;5.30;99.90;;;;;;4977096;28;20033;-80
2021/12/04 09:20:41;;;;;;;34.95;8.63;;;5.40;99.90;;;;;;4994487;28;20109;-78
2021/12/04 09:23:13;;;;;;;33.58;8.93;;;5.40;99.90;;;;;;4995003;28;20064;-79
2021/12/04 09:25:43;;;;;;;32.47;9.20;;;5.40;99.90;;;;;;4995431;28;20030;-79
2021/12/04 09:35:58;;;;;;;35.85;9.55;;;5.40;99.90;;;;;;4994523;28;20027;-78
2021/12/04 10:00:30;;;;;;;31.08;8.70;;;5.70;99.90;;;;;;4994516;28;20109;-78
2021/12/04 10:03:15;;;;;;;29.17;8.30;;;5.60;99.90;;;;;;4977404;28;20034;-79
2021/12/04 10:19:59;;;;;;;26.00;8.02;;;5.60;99.90;;;;;;4938208;29;20545;-79
2021/12/04 10:33:39;;;;;;;26.23;8.13;;;5.70;99.90;;;;;;4980124;28;20143;-79
2021/12/04 10:36:04;;;;;;;36.00;8.85;;;5.70;99.90;;;;;;4979661;28;20277;-78
2021/12/04 10:38:38;;;;;;;31.05;10.02;;;5.70;99.90;;;;;;4979845;28;20033;-79
2021/12/04 10:41:04;;;;;;;26.45;8.13;;;5.70;99.90;;;;;;4998061;28;20127;-78
2021/12/04 10:43:31;;;;;;;28.13;9.45;;;5.70;99.90;;;;;;4997851;28;20061;-78
2021/12/04 10:46:01;;;;;;;29.23;9.02;;;5.80;99.90;;;;;;4979894;28;20030;-78
2021/12/04 10:48:29;;;;;;;28.13;9.13;;;5.80;99.90;;;;;;4980560;28;20054;-79
2021/12/04 10:53:27;;;;;;;23.75;6.90;;;5.70;99.90;;;;;;4998188;28;20031;-78
2021/12/04 10:59:00;;;;;;;27.20;8.48;;;5.90;99.90;;;;;;4997589;28;20062;-78
2021/12/04 11:01:28;;;;;;;30.00;8.40;;;5.80;99.90;;;;;;4997894;28;20037;-79
2021/12/04 11:04:10;;;;;;;28.35;8.15;;;5.90;99.90;;;;;;4998263;28;20448;-79
2021/12/04 11:37:03;;;;;;;41.70;10.70;;;5.90;99.90;;;;;;4996052;28;20109;-75
2021/12/04 11:42:27;;;;;;;34.65;11.65;;;5.80;99.90;;;;;;4996483;28;20045;-76
2021/12/04 11:48:00;;;;;;;36.35;11.13;;;5.90;99.90;;;;;;4991350;28;20490;-75
2021/12/04 11:50:33;;;;;;;40.63;11.95;;;5.90;99.90;;;;;;4995743;28;20057;-76
2021/12/04 11:53:09;;;;;;;41.63;11.95;;;5.90;99.90;;;;;;4995779;28;20487;-75
2021/12/04 11:55:39;;;;;;;38.45;12.20;;;5.90;99.90;;;;;;4995807;28;20061;-76
2021/12/04 11:58:26;;;;;;;43.75;13.20;;;5.90;99.90;;;;;;4995528;28;20031;-76
2021/12/04 12:00:55;;;;;;;51.10;13.55;;;5.90;99.90;;;;;;4995725;28;20061;-76
2021/12/04 12:03:24;;;;;;;43.55;12.85;;;5.90;99.90;;;;;;4995563;28;20391;-76
2021/12/04 12:05:57;;;;;;;40.90;13.10;;;5.90;99.90;;;;;;4995889;28;20045;-76
2021/12/04 12:08:33;;;;;;;48.83;14.45;;;5.90;99.90;;;;;;4994981;28;20022;-75
2021/12/04 12:11:09;;;;;;;53.78;15.43;;;5.90;99.90;;;;;;4994998;28;20113;-76
2021/12/04 12:13:43;;;;;;;48.15;13.48;;;5.90;99.90;;;;;;4977964;28;20181;-76
2021/12/04 12:16:21;;;;;;;50.65;15.13;;;5.90;99.90;;;;;;4977979;28;20042;-76
2021/12/04 12:18:55;;;;;;;47.10;15.00;;;6.00;99.90;;;;;;4995007;28;20022;-79
2021/12/04 12:21:31;;;;;;;53.50;16.08;;;5.90;99.90;;;;;;4994937;28;20037;-76
2021/12/04 12:37:51;;;;;;;40.33;13.32;;;6.00;99.90;;;;;;4995295;28;20542;-76
2021/12/04 12:40:19;;;;;;;41.35;12.93;;;6.00;99.90;;;;;;4995484;28;20467;-76
2021/12/04 12:42:45;;;;;;;42.75;12.02;;;6.10;99.90;;;;;;4995615;28;20026;-77
2021/12/04 12:45:28;;;;;;;41.63;11.68;;;6.10;99.90;;;;;;4995606;28;20030;-76
2021/12/04 12:47:58;;;;;;;37.00;11.65;;;6.00;99.90;;;;;;4977650;28;20097;-77
2021/12/04 12:50:26;;;;;;;32.92;9.60;;;6.00;99.90;;;;;;4977874;28;20100;-76
2021/12/04 12:53:08;;;;;;;44.55;12.13;;;6.00;99.90;;;;;;4995527;28;20488;-77
2021/12/04 12:55:35;;;;;;;42.90;10.63;;;6.00;99.90;;;;;;4995622;28;20022;-77
2021/12/04 12:58:21;;;;;;;35.95;10.50;;;6.00;99.90;;;;;;4978090;28;20026;-77
2021/12/04 13:11:57;;;;;;;32.22;8.73;;;6.00;99.90;;;;;;4995239;28;20077;-77
2021/12/04 13:14:27;;;;;;;31.75;10.25;;;6.00;99.90;;;;;;4977306;28;20049;-77
2021/12/04 13:16:59;;;;;;;31.83;8.73;;;6.00;99.90;;;;;;4977230;28;20026;-77
2021/12/04 13:19:26;;;;;;;31.02;9.98;;;5.90;99.90;;;;;;4994833;28;20030;-77
2021/12/04 13:21:56;;;;;;;26.33;7.90;;;5.90;99.90;;;;;;4977391;28;20467;-77
2021/12/04 13:24:31;;;;;;;26.15;7.75;;;5.90;99.90;;;;;;4994794;28;20053;-77
2021/12/04 13:29:37;;;;;;;27.95;8.10;;;5.90;99.90;;;;;;4994462;28;20034;-75
2021/12/04 13:32:04;;;;;;;28.52;8.10;;;5.90;99.90;;;;;;4995553;28;20533;-81
2021/12/04 13:34:30;;;;;;;21.20;6.82;;;5.90;99.90;;;;;;4977694;28;20106;-77
2021/12/04 13:36:58;;;;;;;24.90;8.00;;;5.90;99.90;;;;;;4994640;28;20510;-78
2021/12/04 13:39:25;;;;;;;25.70;7.25;;;5.90;99.90;;;;;;4993846;28;20034;-76
2021/12/04 13:41:53;;;;;;;22.52;7.47;;;6.00;99.90;;;;;;4994726;28;20093;-75
2021/12/04 13:44:21;;;;;;;21.20;6.65;;;6.00;99.90;;;;;;4977067;28;20027;-78
2021/12/04 13:46:56;;;;;;;19.85;6.32;;;6.00;99.90;;;;;;4975240;28;20539;-78
2021/12/04 13:49:33;;;;;;;21.70;6.63;;;6.00;99.90;;;;;;4982060;28;20026;-78
2021/12/04 13:52:06;;;;;;;17.75;5.80;;;6.00;99.90;;;;;;4977289;28;20030;-78
2021/12/04 13:54:39;;;;;;;16.15;5.55;;;6.10;99.90;;;;;;4994800;28;20026;-78
2021/12/04 13:57:13;;;;;;;16.90;5.47;;;6.10;99.90;;;;;;4994614;28;20038;-76
2021/12/04 13:59:40;;;;;;;14.57;5.78;;;6.10;99.90;;;;;;4976382;28;20403;-77
2021/12/04 14:02:05;;;;;;;25.10;6.07;;;6.10;99.90;;;;;;4976982;28;20058;-76
2021/12/04 14:04:36;;;;;;;17.73;6.43;;;6.10;99.90;;;;;;4994504;28;20030;-76
2021/12/04 14:07:03;;;;;;;17.27;5.70;;;6.10;99.90;;;;;;4994844;28;20046;-77
2021/12/04 14:09:37;;;;;;;13.85;4.50;;;6.10;99.90;;;;;;4994163;28;20054;-77
2021/12/04 14:12:04;;;;;;;15.68;4.80;;;6.10;99.90;;;;;;4976795;28;20027;-78
2021/12/04 14:14:32;;;;;;;16.13;4.60;;;6.10;99.90;;;;;;4993927;28;20386;-78
2021/12/04 14:17:13;;;;;;;12.82;4.10;;;6.10;99.90;;;;;;4994143;28;20391;-77
2021/12/04 14:19:40;;;;;;;12.75;4.50;;;6.10;99.90;;;;;;4994327;28;20034;-77
2021/12/04 14:22:09;;;;;;;12.88;4.07;;;6.20;99.90;;;;;;4994021;28;20073;-77
2021/12/04 14:24:47;;;;;;;13.30;3.72;;;6.20;99.90;;;;;;4994560;28;20038;-77
2021/12/04 14:27:24;;;;;;;14.55;4.95;;;6.10;99.90;;;;;;4993807;28;20502;-75
2021/12/04 14:29:54;;;;;;;17.48;5.20;;;6.10;99.90;;;;;;4975863;28;20034;-78
2021/12/04 14:32:25;;;;;;;16.85;5.90;;;6.10;99.90;;;;;;4976260;28;20373;-78
2021/12/04 14:35:02;;;;;;;15.80;5.10;;;6.10;99.90;;;;;;4993758;28;20033;-76
2021/12/04 14:37:33;;;;;;;15.85;4.93;;;6.10;99.90;;;;;;4993264;28;20026;-78
2021/12/04 14:40:00;;;;;;;13.40;4.60;;;6.10;99.90;;;;;;4993579;28;20396;-78
2021/12/04 14:42:29;;;;;;;15.90;4.93;;;6.20;99.90;;;;;;4994118;28;20038;-75
2021/12/04 14:45:03;;;;;;;15.23;4.75;;;6.10;99.90;;;;;;4993833;28;20031;-76
2021/12/04 14:47:35;;;;;;;14.55;4.85;;;6.10;99.90;;;;;;4995047;28;20451;-75
2021/12/04 14:50:03;;;;;;;17.00;4.68;;;6.10;99.90;;;;;;4993551;28;20531;-76
2021/12/04 14:52:32;;;;;;;10.93;3.67;;;6.10;99.90;;;;;;4995021;28;20034;-76
2021/12/04 14:55:10;;;;;;;17.23;5.28;;;6.10;99.90;;;;;;4997498;28;20324;-75
2021/12/04 14:57:36;;;;;;;17.42;4.70;;;6.10;99.90;;;;;;4996836;28;20064;-75
2021/12/04 15:00:16;;;;;;;19.85;5.20;;;6.10;99.90;;;;;;4996003;28;20034;-76
2021/12/04 15:03:00;;;;;;;14.40;3.55;;;6.10;99.90;;;;;;4997261;28;20026;-76
2021/12/04 15:05:38;;;;;;;13.77;3.33;;;6.10;99.90;;;;;;4996272;28;20088;-76
2021/12/04 15:08:22;;;;;;;12.50;2.42;;;6.00;99.90;;;;;;4995664;28;20021;-75
2021/12/04 15:10:57;;;;;;;13.75;3.63;;;5.90;99.90;;;;;;4980140;28;20035;-75
2021/12/04 15:13:26;;;;;;;8.80;2.40;;;5.90;99.90;;;;;;4979698;28;20023;-75
2021/12/04 15:15:53;;;;;;;9.48;2.47;;;5.90;99.90;;;;;;4997039;28;20030;-76
2021/12/04 15:18:24;;;;;;;16.52;3.83;;;5.90;99.90;;;;;;4997242;28;20046;-75
2021/12/04 15:20:59;;;;;;;12.07;3.20;;;5.90;99.90;;;;;;4979480;28;20018;-75
2021/12/04 15:23:28;;;;;;;14.73;2.53;;;5.80;99.90;;;;;;4996658;28;20034;-74
2021/12/04 15:25:58;;;;;;;6.65;2.00;;;5.80;99.90;;;;;;4979742;28;20022;-75
2021/12/04 15:28:28;;;;;;;8.90;2.28;;;5.80;99.90;;;;;;4996564;28;20075;-75
2021/12/04 15:30:59;;;;;;;10.23;2.25;;;5.80;99.90;;;;;;4996604;28;20069;-76
2021/12/04 15:33:46;;;;;;;11.30;2.90;;;5.80;99.90;;;;;;4979054;28;20025;-76
2021/12/04 15:36:29;;;;;;;11.93;2.13;;;5.80;99.90;;;;;;4978842;28;20021;-75
2021/12/04 15:38:57;;;;;;;11.65;3.08;;;5.80;99.90;;;;;;4996411;28;20106;-75
2021/12/04 15:55:12;;;;;;;11.57;2.92;;;5.90;99.90;;;;;;4996393;28;20045;-75
2021/12/04 15:57:38;;;;;;;10.48;3.40;;;5.90;99.90;;;;;;4996468;28;20456;-76
2021/12/04 16:00:16;;;;;;;7.65;2.30;;;5.90;99.90;;;;;;4995820;28;20101;-76
2021/12/04 16:02:45;;;;;;;7.30;1.83;;;5.90;99.90;;;;;;4995584;28;20034;-76
2021/12/04 16:05:19;;;;;;;9.00;2.20;;;5.90;99.90;;;;;;4978328;28;20026;-75
2021/12/04 16:07:50;;;;;;;9.65;2.30;;;5.90;99.90;;;;;;4978290;28;20026;-76
2021/12/04 16:10:21;;;;;;;11.50;1.48;;;5.90;99.90;;;;;;4978604;28;20050;-76
2021/12/04 16:12:52;;;;;;;6.97;2.03;;;5.90;99.90;;;;;;4978393;28;20034;-77